createdAt,value
2023-03-18T00:02:25.271Z,8.45
2023-03-18T00:04:53.022Z,7.43
2023-03-18T00:07:19.880Z,8.43
2023-03-18T00:09:49.462Z,8.35
2023-03-18T00:12:17.287Z,8.02
2023-03-18T00:14:43.939Z,7.93
2023-03-18T00:17:10.875Z,8.20
2023-03-18T00:19:38.190Z,9.30
2023-03-18T00:22:04.907Z,9.52
2023-03-18T00:24:32.858Z,8.43
2023-03-18T00:26:59.540Z,8.77
2023-03-18T00:29:26.186Z,8.60
2023-03-18T00:31:52.792Z,9.05
2023-03-18T00:34:21.032Z,7.85
2023-03-18T00:36:50.900Z,9.15
2023-03-18T00:39:22.790Z,9.55
2023-03-18T00:41:50.791Z,7.72
2023-03-18T00:44:17.960Z,8.55
2023-03-18T00:46:44.583Z,9.20
2023-03-18T00:49:11.270Z,8.20
2023-03-18T00:51:38.647Z,8.68
2023-03-18T00:54:08.353Z,7.80
2023-03-18T00:56:37.750Z,8.63
2023-03-18T00:59:06.131Z,8.60
2023-03-18T01:01:33.585Z,8.40
2023-03-18T01:04:01.498Z,7.40
2023-03-18T01:06:31.479Z,9.10
2023-03-18T01:09:00.291Z,8.93
2023-03-18T01:11:27.993Z,9.45
2023-03-18T01:13:57.241Z,8.13
2023-03-18T01:16:24.244Z,8.07
2023-03-18T01:18:53.807Z,8.80
2023-03-18T01:21:20.521Z,7.68
2023-03-18T01:23:47.264Z,9.38
2023-03-18T01:26:14.406Z,8.57
2023-03-18T01:28:42.337Z,9.18
2023-03-18T01:31:09.755Z,8.40
2023-03-18T01:33:36.860Z,9.05
2023-03-18T01:36:05.102Z,9.38
2023-03-18T01:38:32.259Z,9.25
2023-03-18T01:41:02.042Z,7.70
2023-03-18T01:43:34.820Z,8.40
2023-03-18T01:46:23.298Z,7.72
2023-03-18T01:48:52.131Z,7.85
2023-03-18T01:51:20.290Z,6.95
2023-03-18T01:53:51.224Z,8.35
2023-03-18T01:56:20.670Z,8.23
2023-03-18T01:58:51.237Z,7.50
2023-03-18T02:01:28.861Z,7.30
2023-03-18T02:03:56.657Z,8.02
2023-03-18T02:06:24.481Z,7.45
2023-03-18T02:08:52.316Z,7.63
2023-03-18T02:11:19.182Z,8.65
2023-03-18T02:13:46.853Z,7.82
2023-03-18T02:16:20.308Z,7.20
2023-03-18T02:18:54.854Z,7.85
2023-03-18T02:24:28.445Z,7.43
2023-03-18T02:27:01.820Z,6.85
2023-03-18T02:29:32.574Z,7.28
2023-03-18T02:32:03.163Z,7.43
2023-03-18T02:34:30.965Z,7.07
2023-03-18T02:36:58.068Z,8.15
2023-03-18T02:39:26.434Z,7.78
2023-03-18T02:41:53.304Z,7.68
2023-03-18T02:44:21.347Z,7.75
2023-03-18T02:47:04.197Z,7.68
2023-03-18T02:49:32.801Z,6.65
2023-03-18T02:52:01.395Z,7.20
2023-03-18T02:54:30.596Z,7.72
2023-03-18T02:56:57.908Z,7.57
2023-03-18T02:59:25.603Z,7.05
2023-03-18T03:01:53.803Z,8.32
2023-03-18T03:04:23.701Z,8.80
2023-03-18T03:06:54.859Z,8.20
2023-03-18T03:09:22.700Z,7.47
2023-03-18T03:11:50.810Z,7.07
2023-03-18T03:14:19.241Z,8.13
2023-03-18T03:16:47.817Z,8.25
2023-03-18T03:19:16.858Z,8.32
2023-03-18T03:21:43.466Z,7.70
2023-03-18T03:24:10.263Z,8.10
2023-03-18T03:26:36.968Z,8.15
2023-03-18T03:29:05.120Z,8.52
2023-03-18T03:31:31.902Z,8.82
2023-03-18T03:33:58.925Z,8.23
2023-03-18T03:36:25.926Z,7.97
2023-03-18T03:38:54.209Z,8.23
2023-03-18T03:41:21.000Z,8.77
2023-03-18T03:43:47.694Z,8.80
2023-03-18T03:46:14.425Z,8.50
2023-03-18T03:48:41.350Z,8.77
2023-03-18T03:51:08.142Z,8.38
2023-03-18T03:53:36.163Z,8.75
2023-03-18T03:56:05.422Z,8.50
2023-03-18T03:58:32.026Z,9.13
2023-03-18T04:00:58.710Z,9.73
2023-03-18T04:03:25.768Z,9.80
2023-03-18T04:05:52.891Z,9.32
2023-03-18T04:08:19.929Z,9.80
2023-03-18T04:10:46.964Z,10.48
2023-03-18T04:13:13.713Z,9.95
2023-03-18T04:15:40.318Z,9.60
2023-03-18T04:18:08.317Z,9.43
2023-03-18T04:20:38.355Z,9.70
2023-03-18T04:23:06.134Z,10.00
2023-03-18T04:25:33.297Z,9.38
2023-03-18T04:28:00.013Z,8.80
2023-03-18T04:30:27.475Z,9.57
2023-03-18T04:32:56.208Z,10.35
2023-03-18T04:35:26.169Z,9.73
2023-03-18T04:37:55.603Z,9.65
2023-03-18T04:40:22.260Z,9.40
2023-03-18T04:42:49.102Z,9.77
2023-03-18T04:45:17.867Z,9.82
2023-03-18T04:47:45.319Z,10.00
2023-03-18T04:50:14.439Z,9.65
2023-03-18T04:52:42.084Z,10.13
2023-03-18T04:55:09.725Z,9.85
2023-03-18T04:57:38.499Z,10.32
2023-03-18T05:00:11.595Z,10.30
2023-03-18T05:02:39.885Z,9.73
2023-03-18T05:05:08.870Z,8.70
2023-03-18T05:07:35.593Z,9.68
2023-03-18T05:10:03.140Z,10.48
2023-03-18T05:12:29.738Z,10.63
2023-03-18T05:14:56.413Z,12.00
2023-03-18T05:17:23.066Z,8.98
2023-03-18T05:19:50.503Z,5.15
2023-03-18T05:22:19.330Z,10.05
2023-03-18T05:24:46.713Z,11.82
2023-03-18T05:27:15.326Z,9.60
2023-03-18T05:29:42.509Z,7.70
2023-03-18T05:32:10.618Z,8.40
2023-03-18T05:34:40.050Z,10.63
2023-03-18T05:37:08.754Z,8.38
2023-03-18T05:39:36.129Z,9.98
2023-03-18T05:42:05.892Z,9.85
2023-03-18T05:44:33.996Z,9.63
2023-03-18T05:47:01.661Z,8.48
2023-03-18T05:49:29.758Z,9.57
2023-03-18T05:51:57.033Z,9.65
2023-03-18T05:54:23.945Z,8.13
2023-03-18T05:56:52.494Z,11.52
2023-03-18T05:59:20.024Z,10.88
2023-03-18T06:01:47.021Z,9.40
2023-03-18T06:04:14.898Z,11.13
2023-03-18T06:06:42.163Z,7.97
2023-03-18T06:09:11.865Z,9.25
2023-03-18T06:11:40.209Z,9.55
2023-03-18T06:14:08.326Z,9.05
2023-03-18T06:16:35.804Z,9.60
2023-03-18T06:19:03.525Z,8.70
2023-03-18T06:21:33.001Z,8.55
2023-03-18T06:24:00.199Z,8.98
2023-03-18T06:26:27.709Z,9.52
2023-03-18T06:28:54.610Z,6.45
2023-03-18T06:31:22.485Z,8.88
2023-03-18T06:33:49.216Z,11.70
2023-03-18T06:36:19.422Z,10.35
2023-03-18T06:38:46.214Z,10.75
2023-03-18T06:41:13.304Z,10.52
2023-03-18T06:43:39.960Z,11.82
2023-03-18T06:46:07.800Z,9.70
2023-03-18T06:48:36.411Z,10.40
2023-03-18T06:51:05.128Z,11.20
2023-03-18T06:53:31.989Z,11.60
2023-03-18T06:55:59.109Z,10.25
2023-03-18T06:58:26.011Z,10.38
2023-03-18T07:00:52.832Z,10.57
2023-03-18T07:03:21.703Z,11.25
2023-03-18T07:05:50.049Z,11.27
2023-03-18T07:08:16.927Z,11.13
2023-03-18T07:10:43.628Z,10.55
2023-03-18T07:13:11.918Z,9.88
2023-03-18T07:15:40.347Z,11.93
2023-03-18T07:18:09.835Z,9.20
2023-03-18T07:20:40.395Z,10.77
2023-03-18T07:23:09.590Z,11.13
2023-03-18T07:25:36.731Z,8.38
2023-03-18T07:28:06.389Z,12.73
2023-03-18T07:30:34.075Z,11.05
2023-03-18T07:33:02.519Z,11.15
2023-03-18T07:35:29.287Z,9.05
2023-03-18T07:37:56.873Z,10.48
2023-03-18T07:40:24.348Z,9.18
2023-03-18T07:42:54.137Z,9.57
2023-03-18T07:45:20.888Z,8.57
2023-03-18T07:47:47.616Z,9.82
2023-03-18T07:50:14.417Z,9.90
2023-03-18T07:52:41.949Z,8.23
2023-03-18T07:55:09.271Z,12.93
2023-03-18T07:57:36.727Z,6.95
2023-03-18T08:00:08.119Z,10.00
2023-03-18T08:02:36.176Z,10.35
2023-03-18T08:05:03.692Z,11.70
2023-03-18T08:07:30.730Z,10.23
2023-03-18T08:09:57.337Z,11.13
2023-03-18T08:12:25.239Z,10.80
2023-03-18T08:14:52.239Z,9.27
2023-03-18T08:17:19.966Z,10.32
2023-03-18T08:19:50.072Z,10.93
2023-03-18T08:22:17.012Z,9.75
2023-03-18T08:24:46.659Z,11.60
2023-03-18T08:27:13.333Z,10.18
2023-03-18T08:29:41.455Z,10.00
2023-03-18T08:32:08.410Z,11.20
2023-03-18T08:34:35.942Z,8.95
2023-03-18T08:37:02.812Z,11.10
2023-03-18T08:39:29.441Z,9.55
2023-03-18T08:41:57.943Z,9.80
2023-03-18T08:44:24.733Z,10.85
2023-03-18T08:46:52.674Z,8.15
2023-03-18T08:49:19.781Z,8.98
2023-03-18T08:51:48.203Z,9.48
2023-03-18T08:54:14.828Z,9.10
2023-03-18T08:56:41.420Z,8.60
2023-03-18T08:59:08.515Z,9.60
2023-03-18T09:01:35.190Z,9.32
2023-03-18T09:04:01.875Z,9.18
2023-03-18T09:06:30.041Z,9.95
2023-03-18T09:08:58.786Z,8.07
2023-03-18T09:11:25.425Z,8.32
2023-03-18T09:13:52.350Z,9.77
2023-03-18T09:16:19.057Z,7.22
2023-03-18T09:18:48.699Z,7.10
2023-03-18T09:21:15.554Z,8.52
2023-03-18T09:23:42.172Z,8.50
2023-03-18T09:26:10.284Z,10.02
2023-03-18T09:28:37.288Z,9.25
2023-03-18T09:31:04.114Z,10.10
2023-03-18T09:33:31.869Z,8.93
2023-03-18T09:35:58.497Z,8.40
2023-03-18T09:38:25.159Z,10.38
2023-03-18T09:41:10.129Z,9.10
2023-03-18T09:43:46.982Z,11.45
2023-03-18T09:46:23.418Z,10.27
2023-03-18T09:49:16.733Z,9.70
2023-03-18T09:52:02.178Z,10.43
2023-03-18T09:54:39.684Z,9.35
2023-03-18T09:57:21.013Z,10.27
2023-03-18T09:59:54.828Z,10.27
2023-03-18T10:02:40.095Z,7.47
2023-03-18T10:05:16.823Z,8.95
2023-03-18T10:07:44.989Z,7.85
2023-03-18T10:10:40.095Z,8.30
2023-03-18T10:13:26.524Z,7.13
2023-03-18T10:15:57.052Z,6.55
2023-03-18T10:18:33.475Z,6.55
2023-03-18T10:21:10.338Z,7.35
2023-03-18T10:23:49.727Z,7.15
2023-03-18T10:26:42.385Z,7.25
2023-03-18T10:29:13.462Z,7.30
2023-03-18T10:32:06.103Z,7.05
2023-03-18T10:34:57.083Z,6.03
2023-03-18T10:37:51.796Z,5.03
2023-03-18T10:40:20.410Z,5.57
2023-03-18T10:42:50.546Z,5.47
2023-03-18T10:45:25.409Z,6.50
2023-03-18T10:48:15.980Z,5.32
2023-03-18T10:50:50.180Z,5.80
2023-03-18T10:53:23.535Z,7.53
2023-03-18T10:56:13.797Z,6.57
2023-03-18T10:58:42.250Z,6.95
2023-03-18T11:01:13.271Z,7.22
2023-03-18T11:03:50.405Z,6.88
2023-03-18T11:06:25.356Z,7.45
2023-03-18T11:09:02.942Z,7.10
2023-03-18T11:11:33.451Z,7.70
2023-03-18T11:14:02.438Z,6.10
2023-03-18T11:17:08.938Z,6.88
2023-03-18T11:19:47.897Z,7.53
2023-03-18T11:22:24.600Z,6.00
2023-03-18T11:25:13.870Z,6.55
2023-03-18T11:27:43.365Z,7.30
2023-03-18T11:30:33.927Z,5.80
2023-03-18T11:33:14.273Z,4.82
2023-03-18T11:35:52.471Z,5.82
2023-03-18T11:38:29.290Z,6.05
2023-03-18T11:41:23.358Z,5.38
2023-03-18T11:44:02.681Z,7.35
2023-03-18T11:46:47.729Z,5.93
2023-03-18T11:49:17.906Z,5.20
2023-03-18T11:52:23.134Z,8.20
2023-03-18T11:55:23.152Z,6.88
2023-03-18T11:58:31.397Z,5.70
2023-03-18T12:01:17.692Z,6.38
2023-03-18T12:04:05.930Z,5.72
2023-03-18T12:06:46.177Z,5.50
2023-03-18T12:09:30.436Z,4.38
2023-03-18T12:12:30.601Z,5.05
2023-03-18T12:15:15.715Z,3.85
2023-03-18T12:17:49.398Z,4.30
2023-03-18T12:20:29.275Z,4.30
2023-03-18T12:23:07.879Z,3.47
2023-03-18T12:26:02.639Z,3.83
2023-03-18T12:28:34.090Z,3.60
2023-03-18T12:31:17.242Z,3.13
2023-03-18T12:34:04.259Z,2.85
2023-03-18T12:36:44.481Z,3.42
2023-03-18T12:39:32.344Z,2.72
2023-03-18T12:42:09.473Z,2.75
2023-03-18T12:44:36.619Z,2.45
2023-03-18T12:47:37.447Z,2.40
2023-03-18T12:50:16.385Z,2.33
2023-03-18T12:52:44.170Z,1.92
2023-03-18T12:55:41.207Z,2.47
2023-03-18T12:58:17.758Z,2.40
2023-03-18T13:00:49.026Z,2.33
2023-03-18T13:03:36.329Z,2.35
2023-03-18T13:06:15.652Z,2.80
2023-03-18T13:08:47.198Z,2.28
2023-03-18T13:11:46.067Z,2.63
2023-03-18T13:14:37.146Z,1.98
2023-03-18T13:17:10.342Z,1.98
2023-03-18T13:19:39.136Z,2.20
2023-03-18T13:22:13.512Z,2.30
2023-03-18T13:24:40.058Z,1.75
2023-03-18T13:27:09.695Z,2.13
2023-03-18T13:30:13.207Z,1.63
2023-03-18T13:32:49.810Z,2.47
2023-03-18T13:35:23.221Z,2.17
2023-03-18T13:38:03.566Z,2.15
2023-03-18T13:40:58.086Z,2.10
2023-03-18T13:43:27.829Z,1.90
2023-03-18T13:45:57.426Z,1.90
2023-03-18T13:48:40.767Z,2.22
2023-03-18T13:51:25.389Z,1.92
2023-03-18T13:54:05.065Z,2.28
2023-03-18T13:56:45.158Z,1.60
2023-03-18T13:59:33.260Z,1.52
2023-03-18T14:02:25.645Z,1.40
2023-03-18T14:04:53.300Z,1.27
2023-03-18T14:07:22.298Z,1.40
2023-03-18T14:10:08.342Z,2.03
2023-03-18T14:12:46.099Z,1.50
2023-03-18T14:15:15.737Z,1.90
2023-03-18T14:18:03.633Z,1.42
2023-03-18T14:20:42.200Z,1.38
2023-03-18T14:23:22.266Z,1.20
2023-03-18T14:26:03.912Z,1.67
2023-03-18T14:28:45.664Z,1.50
2023-03-18T14:31:21.310Z,8.00
2023-03-18T14:34:23.922Z,1.77
2023-03-18T14:36:53.297Z,1.65
2023-03-18T14:39:49.098Z,1.80
2023-03-18T14:42:50.733Z,1.80
2023-03-18T14:45:34.510Z,1.50
2023-03-18T14:48:11.666Z,1.90
2023-03-18T14:50:47.243Z,1.83
2023-03-18T14:53:35.657Z,1.27
2023-03-18T14:56:04.123Z,1.02
2023-03-18T14:58:30.917Z,1.35
2023-03-18T15:01:13.280Z,1.48
2023-03-18T15:03:44.783Z,1.40
2023-03-18T15:06:22.976Z,1.55
2023-03-18T15:08:58.036Z,1.45
2023-03-18T15:11:26.109Z,1.38
2023-03-18T15:14:00.082Z,0.90
2023-03-18T15:16:32.941Z,1.75
2023-03-18T15:19:00.295Z,1.10
2023-03-18T15:21:32.478Z,1.42
2023-03-18T15:24:09.454Z,0.88
2023-03-18T15:26:41.412Z,1.23
2023-03-18T15:29:35.413Z,1.15
2023-03-18T15:32:17.357Z,1.10
2023-03-18T15:34:47.210Z,1.38
2023-03-18T15:37:33.778Z,1.20
2023-03-18T15:40:23.719Z,0.95
2023-03-18T15:42:50.878Z,1.10
2023-03-18T15:45:21.523Z,1.05
2023-03-18T15:47:48.599Z,1.08
2023-03-18T15:50:26.354Z,1.13
2023-03-18T15:53:03.908Z,1.10
2023-03-18T15:55:48.629Z,1.00
2023-03-18T15:58:25.000Z,1.13
2023-03-18T16:00:52.834Z,1.00
2023-03-18T16:03:25.206Z,1.00
2023-03-18T16:05:53.383Z,1.48
2023-03-18T16:08:21.156Z,2.30
2023-03-18T16:10:50.131Z,1.33
2023-03-18T16:13:23.442Z,1.30
2023-03-18T16:15:51.143Z,1.20
2023-03-18T16:18:18.248Z,1.50
2023-03-18T16:20:47.087Z,1.00
2023-03-18T16:23:17.902Z,1.00
2023-03-18T16:25:48.386Z,1.10
2023-03-18T16:28:27.733Z,0.90
2023-03-18T16:30:56.195Z,1.00
2023-03-18T16:33:24.845Z,0.85
2023-03-18T16:35:58.692Z,0.70
2023-03-18T16:38:28.043Z,0.52
2023-03-18T16:40:56.024Z,0.52
2023-03-18T16:43:29.046Z,0.80
2023-03-18T16:46:00.560Z,0.90
2023-03-18T16:48:28.426Z,1.00
2023-03-18T16:50:57.438Z,1.00
2023-03-18T16:53:27.215Z,0.80
2023-03-18T16:56:00.224Z,0.90
2023-03-18T16:58:33.894Z,1.10
2023-03-18T17:01:00.924Z,1.10
2023-03-18T17:03:29.335Z,1.00
2023-03-18T17:05:57.434Z,0.77
2023-03-18T17:08:24.492Z,0.75
2023-03-18T17:10:56.823Z,0.80
2023-03-18T17:13:27.325Z,0.70
2023-03-18T17:15:56.186Z,0.70
2023-03-18T17:18:24.619Z,0.90
2023-03-18T17:20:52.175Z,1.00
2023-03-18T17:23:21.775Z,0.90
2023-03-18T17:25:52.385Z,0.90
2023-03-18T17:28:33.000Z,1.75
2023-03-18T17:31:00.084Z,1.48
2023-03-18T17:33:32.270Z,1.10
2023-03-18T17:36:00.521Z,1.25
2023-03-18T17:38:29.214Z,1.25
2023-03-18T17:40:56.704Z,0.90
2023-03-18T17:43:27.862Z,1.23
2023-03-18T17:45:56.611Z,1.48
2023-03-18T17:48:25.676Z,1.30
2023-03-18T17:51:27.521Z,1.70
2023-03-18T17:53:59.131Z,1.90
2023-03-18T17:56:27.856Z,3.03
2023-03-18T17:58:56.305Z,1.98
2023-03-18T18:01:27.183Z,2.85
2023-03-18T18:03:59.113Z,1.70
2023-03-18T18:06:29.314Z,1.67
2023-03-18T18:09:01.004Z,1.73
2023-03-18T18:11:39.739Z,2.13
2023-03-18T18:14:21.205Z,2.47
2023-03-18T18:16:50.076Z,0.60
2023-03-18T18:19:17.193Z,2.70
2023-03-18T18:21:46.511Z,3.65
2023-03-18T18:24:20.493Z,5.80
2023-03-18T18:26:47.136Z,1.27
2023-03-18T18:29:19.322Z,1.58
2023-03-18T18:31:48.380Z,1.50
2023-03-18T18:34:16.034Z,1.30
2023-03-18T18:36:43.128Z,2.53
2023-03-18T18:39:10.923Z,2.75
2023-03-18T18:41:38.917Z,1.50
2023-03-18T18:44:07.025Z,1.33
2023-03-18T18:46:34.967Z,1.10
2023-03-18T18:49:01.779Z,1.50
2023-03-18T18:51:29.082Z,1.73
2023-03-18T18:53:56.060Z,1.27
2023-03-18T18:56:34.279Z,1.45
2023-03-18T18:59:03.045Z,1.10
2023-03-18T19:01:31.080Z,1.00
2023-03-18T19:03:57.862Z,1.40
2023-03-18T19:06:31.363Z,1.17
2023-03-18T19:09:04.061Z,0.95
2023-03-18T19:11:30.762Z,1.00
2023-03-18T19:14:20.054Z,1.00
2023-03-18T19:16:49.340Z,1.00
2023-03-18T19:19:20.426Z,1.00
2023-03-18T19:21:47.927Z,1.10
2023-03-18T19:24:28.519Z,0.80
2023-03-18T19:26:58.511Z,1.20
2023-03-18T19:29:27.483Z,0.95
2023-03-18T19:31:54.916Z,0.85
2023-03-18T19:34:22.171Z,0.93
2023-03-18T19:36:53.135Z,1.08
2023-03-18T19:39:22.131Z,0.77
2023-03-18T19:41:49.080Z,0.70
2023-03-18T19:44:21.093Z,0.90
2023-03-18T19:46:50.778Z,1.00
2023-03-18T19:49:24.791Z,0.80
2023-03-18T19:51:52.222Z,1.00
2023-03-18T19:54:33.731Z,1.20
2023-03-18T19:57:04.249Z,1.13
2023-03-18T19:59:39.886Z,1.00
2023-03-18T20:02:30.551Z,1.20
2023-03-18T20:04:59.784Z,1.00
2023-03-18T20:07:29.437Z,0.85
2023-03-18T20:09:56.455Z,0.70
2023-03-18T20:12:34.777Z,0.85
2023-03-18T20:15:01.462Z,1.08
2023-03-18T20:17:41.567Z,1.20
2023-03-18T20:20:14.461Z,1.33
2023-03-18T20:22:48.207Z,1.08
2023-03-18T20:25:28.709Z,1.00
2023-03-18T20:27:57.167Z,0.90
2023-03-18T20:30:25.655Z,1.00
2023-03-18T20:32:53.631Z,1.80
2023-03-18T20:35:21.376Z,1.80
2023-03-18T20:37:49.747Z,1.60
2023-03-18T20:40:23.318Z,1.20
2023-03-18T20:42:51.707Z,1.67
2023-03-18T20:45:19.196Z,1.65
2023-03-18T20:47:46.685Z,1.38
2023-03-18T20:50:19.369Z,1.65
2023-03-18T20:52:47.876Z,1.42
2023-03-18T20:55:26.944Z,1.20
2023-03-18T20:57:55.690Z,1.33
2023-03-18T21:00:26.326Z,1.42
2023-03-18T21:02:55.210Z,1.40
2023-03-18T21:05:22.245Z,1.48
2023-03-18T21:07:49.087Z,1.20
2023-03-18T21:10:21.792Z,1.42
2023-03-18T21:12:49.803Z,1.40
2023-03-18T21:15:27.115Z,1.27
2023-03-18T21:17:54.312Z,1.40
2023-03-18T21:20:27.245Z,0.90
2023-03-18T21:22:54.716Z,1.20
2023-03-18T21:25:24.469Z,0.95
2023-03-18T21:27:53.006Z,0.90
2023-03-18T21:30:22.039Z,0.80
2023-03-18T21:32:51.818Z,1.10
2023-03-18T21:35:24.872Z,0.75
2023-03-18T21:37:53.651Z,1.10
2023-03-18T21:40:25.070Z,0.80
2023-03-18T21:42:53.359Z,0.60
2023-03-18T21:45:22.893Z,1.05
2023-03-18T21:47:50.942Z,1.00
2023-03-18T21:50:24.121Z,0.77
2023-03-18T21:52:53.346Z,1.00
2023-03-18T21:55:21.649Z,1.17
2023-03-18T21:57:49.186Z,0.70
2023-03-18T22:00:19.284Z,0.85
2023-03-18T22:02:46.852Z,0.80
2023-03-18T22:05:22.918Z,0.70
2023-03-18T22:07:50.868Z,0.70
2023-03-18T22:10:23.292Z,1.65
2023-03-18T22:12:50.527Z,0.77
2023-03-18T22:15:24.106Z,0.60
2023-03-18T22:17:51.778Z,1.00
2023-03-18T22:20:20.868Z,1.00
2023-03-18T22:22:48.691Z,0.80
2023-03-18T22:25:29.451Z,0.77
2023-03-18T22:27:58.037Z,0.68
2023-03-18T22:30:29.395Z,0.73
2023-03-18T22:32:57.042Z,0.68
2023-03-18T22:35:26.793Z,0.70
2023-03-18T22:37:54.316Z,0.80
2023-03-18T22:40:28.023Z,0.90
2023-03-18T22:43:00.413Z,0.63
2023-03-18T22:45:34.433Z,0.80
2023-03-18T22:48:03.205Z,0.90
2023-03-18T22:50:33.692Z,0.80
2023-03-18T22:53:05.626Z,0.90
2023-03-18T22:55:35.742Z,0.80
2023-03-18T22:58:02.899Z,0.80
2023-03-18T23:00:37.472Z,1.10
2023-03-18T23:03:11.441Z,1.00
2023-03-18T23:05:39.549Z,0.98
2023-03-18T23:08:06.595Z,0.90
2023-03-18T23:10:33.583Z,1.08
2023-03-18T23:13:01.494Z,1.02
2023-03-18T23:15:29.492Z,1.15
2023-03-18T23:17:56.088Z,1.25
2023-03-18T23:20:22.720Z,1.70
2023-03-18T23:22:49.312Z,1.40
2023-03-18T23:25:17.941Z,1.30
2023-03-18T23:27:45.482Z,1.35
2023-03-18T23:30:14.629Z,1.25
2023-03-18T23:32:41.734Z,1.25
2023-03-18T23:35:10.573Z,1.30
2023-03-18T23:37:37.172Z,1.65
2023-03-18T23:40:05.655Z,1.30
2023-03-18T23:42:32.367Z,1.10
2023-03-18T23:44:58.998Z,1.17
2023-03-18T23:47:25.805Z,1.42
2023-03-18T23:49:53.667Z,0.95
2023-03-18T23:52:20.571Z,1.40
2023-03-18T23:54:48.382Z,0.90
2023-03-18T23:57:14.986Z,0.93
2023-03-18T23:59:42.565Z,1.42
